sensor_id;sensor_type;location;lat;lon;timestamp;P1;durP1;ratioP1;P2;durP2;ratioP2
28760;SDS011;15917;50.014;8.352;2023-04-24T00:00:54;1.58;;;0.82;;
28760;SDS011;15917;50.014;8.352;2023-04-24T00:03:22;4.93;;;1.00;;
28760;SDS011;15917;50.014;8.352;2023-04-24T00:05:48;5.03;;;0.90;;
28760;SDS011;15917;50.014;8.352;2023-04-24T00:08:13;5.32;;;1.00;;
28760;SDS011;15917;50.014;8.352;2023-04-24T00:10:39;1.75;;;0.88;;
28760;SDS011;15917;50.014;8.352;2023-04-24T00:13:05;7.22;;;1.02;;
28760;SDS011;15917;50.014;8.352;2023-04-24T00:15:31;5.00;;;1.02;;
28760;SDS011;15917;50.014;8.352;2023-04-24T00:17:57;6.07;;;0.98;;
28760;SDS011;15917;50.014;8.352;2023-04-24T00:20:22;2.75;;;0.82;;
28760;SDS011;15917;50.014;8.352;2023-04-24T00:22:48;2.75;;;1.17;;
28760;SDS011;15917;50.014;8.352;2023-04-24T00:25:14;7.10;;;0.88;;
28760;SDS011;15917;50.014;8.352;2023-04-24T00:27:40;3.38;;;1.13;;
28760;SDS011;15917;50.014;8.352;2023-04-24T00:30:06;5.28;;;1.90;;
28760;SDS011;15917;50.014;8.352;2023-04-24T00:32:32;1.67;;;0.95;;
28760;SDS011;15917;50.014;8.352;2023-04-24T00:34:57;3.35;;;1.10;;
28760;SDS011;15917;50.014;8.352;2023-04-24T00:37:23;1.50;;;0.93;;
28760;SDS011;15917;50.014;8.352;2023-04-24T00:39:49;4.55;;;0.98;;
28760;SDS011;15917;50.014;8.352;2023-04-24T00:42:15;3.22;;;0.98;;
28760;SDS011;15917;50.014;8.352;2023-04-24T00:44:40;1.08;;;0.73;;
28760;SDS011;15917;50.014;8.352;2023-04-24T00:47:06;4.32;;;0.70;;
28760;SDS011;15917;50.014;8.352;2023-04-24T00:49:32;5.75;;;0.82;;
28760;SDS011;15917;50.014;8.352;2023-04-24T00:51:58;2.67;;;0.80;;
28760;SDS011;15917;50.014;8.352;2023-04-24T00:54:24;2.38;;;0.70;;
28760;SDS011;15917;50.014;8.352;2023-04-24T00:56:50;1.17;;;0.63;;
28760;SDS011;15917;50.014;8.352;2023-04-24T00:59:16;2.30;;;0.70;;
28760;SDS011;15917;50.014;8.352;2023-04-24T01:01:43;2.28;;;0.85;;
28760;SDS011;15917;50.014;8.352;2023-04-24T01:04:09;4.38;;;1.00;;
28760;SDS011;15917;50.014;8.352;2023-04-24T01:06:37;2.07;;;0.80;;
28760;SDS011;15917;50.014;8.352;2023-04-24T01:09:04;7.15;;;1.38;;
28760;SDS011;15917;50.014;8.352;2023-04-24T01:11:30;4.03;;;1.45;;
28760;SDS011;15917;50.014;8.352;2023-04-24T01:13:56;7.50;;;1.00;;
28760;SDS011;15917;50.014;8.352;2023-04-24T01:16:22;2.28;;;0.80;;
28760;SDS011;15917;50.014;8.352;2023-04-24T01:18:48;2.58;;;0.73;;
28760;SDS011;15917;50.014;8.352;2023-04-24T01:21:14;1.55;;;0.85;;
28760;SDS011;15917;50.014;8.352;2023-04-24T01:23:42;2.13;;;1.10;;
28760;SDS011;15917;50.014;8.352;2023-04-24T01:26:09;2.67;;;0.90;;
28760;SDS011;15917;50.014;8.352;2023-04-24T01:28:35;2.45;;;0.90;;
28760;SDS011;15917;50.014;8.352;2023-04-24T01:31:03;4.43;;;1.30;;
28760;SDS011;15917;50.014;8.352;2023-04-24T01:33:29;4.88;;;1.20;;
28760;SDS011;15917;50.014;8.352;2023-04-24T01:35:55;3.35;;;1.02;;
28760;SDS011;15917;50.014;8.352;2023-04-24T01:38:21;8.80;;;1.40;;
28760;SDS011;15917;50.014;8.352;2023-04-24T01:40:47;8.23;;;1.50;;
28760;SDS011;15917;50.014;8.352;2023-04-24T01:43:13;3.08;;;1.08;;
28760;SDS011;15917;50.014;8.352;2023-04-24T01:45:38;3.80;;;1.23;;
28760;SDS011;15917;50.014;8.352;2023-04-24T01:48:04;4.13;;;1.20;;
28760;SDS011;15917;50.014;8.352;2023-04-24T01:50:30;3.80;;;1.10;;
28760;SDS011;15917;50.014;8.352;2023-04-24T01:52:56;4.75;;;1.30;;
28760;SDS011;15917;50.014;8.352;2023-04-24T01:55:21;4.70;;;1.35;;
28760;SDS011;15917;50.014;8.352;2023-04-24T01:57:47;10.55;;;1.30;;
28760;SDS011;15917;50.014;8.352;2023-04-24T02:00:13;2.15;;;1.20;;
28760;SDS011;15917;50.014;8.352;2023-04-24T02:02:40;4.70;;;1.77;;
28760;SDS011;15917;50.014;8.352;2023-04-24T02:05:06;2.28;;;1.17;;
28760;SDS011;15917;50.014;8.352;2023-04-24T02:07:35;2.88;;;1.55;;
28760;SDS011;15917;50.014;8.352;2023-04-24T02:10:01;3.90;;;1.15;;
28760;SDS011;15917;50.014;8.352;2023-04-24T02:12:27;4.30;;;1.15;;
28760;SDS011;15917;50.014;8.352;2023-04-24T02:14:52;4.53;;;1.00;;
28760;SDS011;15917;50.014;8.352;2023-04-24T02:17:18;3.08;;;1.02;;
28760;SDS011;15917;50.014;8.352;2023-04-24T02:19:44;4.90;;;0.90;;
28760;SDS011;15917;50.014;8.352;2023-04-24T02:22:10;8.40;;;1.20;;
28760;SDS011;15917;50.014;8.352;2023-04-24T02:24:36;6.90;;;1.17;;
28760;SDS011;15917;50.014;8.352;2023-04-24T02:27:02;4.00;;;1.00;;
28760;SDS011;15917;50.014;8.352;2023-04-24T02:29:28;7.85;;;1.75;;
28760;SDS011;15917;50.014;8.352;2023-04-24T02:31:54;5.00;;;1.20;;
28760;SDS011;15917;50.014;8.352;2023-04-24T02:34:19;7.75;;;1.23;;
28760;SDS011;15917;50.014;8.352;2023-04-24T02:36:45;6.55;;;1.20;;
28760;SDS011;15917;50.014;8.352;2023-04-24T02:39:11;5.82;;;1.20;;
28760;SDS011;15917;50.014;8.352;2023-04-24T02:41:38;3.58;;;0.80;;
28760;SDS011;15917;50.014;8.352;2023-04-24T02:44:04;1.55;;;0.77;;
28760;SDS011;15917;50.014;8.352;2023-04-24T02:46:30;2.70;;;0.60;;
28760;SDS011;15917;50.014;8.352;2023-04-24T02:48:55;4.43;;;0.82;;
28760;SDS011;15917;50.014;8.352;2023-04-24T02:51:21;0.50;;;0.32;;
28760;SDS011;15917;50.014;8.352;2023-04-24T02:53:46;3.95;;;0.80;;
28760;SDS011;15917;50.014;8.352;2023-04-24T02:56:12;4.47;;;0.80;;
28760;SDS011;15917;50.014;8.352;2023-04-24T02:58:38;8.13;;;1.10;;
28760;SDS011;15917;50.014;8.352;2023-04-24T03:01:03;2.78;;;0.88;;
28760;SDS011;15917;50.014;8.352;2023-04-24T03:03:30;6.70;;;0.95;;
28760;SDS011;15917;50.014;8.352;2023-04-24T03:05:55;3.05;;;0.93;;
28760;SDS011;15917;50.014;8.352;2023-04-24T03:08:22;2.90;;;0.60;;
28760;SDS011;15917;50.014;8.352;2023-04-24T03:10:48;1.52;;;0.85;;
28760;SDS011;15917;50.014;8.352;2023-04-24T03:13:14;4.97;;;1.20;;
28760;SDS011;15917;50.014;8.352;2023-04-24T03:15:40;2.42;;;1.00;;
28760;SDS011;15917;50.014;8.352;2023-04-24T03:18:06;1.70;;;0.95;;
28760;SDS011;15917;50.014;8.352;2023-04-24T03:20:31;3.33;;;0.90;;
28760;SDS011;15917;50.014;8.352;2023-04-24T03:22:57;3.33;;;0.73;;
28760;SDS011;15917;50.014;8.352;2023-04-24T03:25:24;6.45;;;0.98;;
28760;SDS011;15917;50.014;8.352;2023-04-24T03:27:50;3.03;;;0.75;;
28760;SDS011;15917;50.014;8.352;2023-04-24T03:30:33;6.53;;;1.15;;
28760;SDS011;15917;50.014;8.352;2023-04-24T03:32:59;3.53;;;0.93;;
28760;SDS011;15917;50.014;8.352;2023-04-24T03:35:28;1.85;;;0.70;;
28760;SDS011;15917;50.014;8.352;2023-04-24T03:37:55;4.40;;;0.93;;
28760;SDS011;15917;50.014;8.352;2023-04-24T03:40:44;1.90;;;0.90;;
28760;SDS011;15917;50.014;8.352;2023-04-24T03:43:28;1.88;;;0.82;;
28760;SDS011;15917;50.014;8.352;2023-04-24T03:45:56;3.67;;;0.80;;
28760;SDS011;15917;50.014;8.352;2023-04-24T03:48:22;0.85;;;0.55;;
28760;SDS011;15917;50.014;8.352;2023-04-24T03:50:48;2.50;;;0.80;;
28760;SDS011;15917;50.014;8.352;2023-04-24T03:53:14;3.50;;;1.10;;
28760;SDS011;15917;50.014;8.352;2023-04-24T03:55:41;3.95;;;1.30;;
28760;SDS011;15917;50.014;8.352;2023-04-24T03:58:08;2.63;;;0.90;;
28760;SDS011;15917;50.014;8.352;2023-04-24T04:00:34;1.17;;;0.80;;
28760;SDS011;15917;50.014;8.352;2023-04-24T04:03:37;5.90;;;0.90;;
28760;SDS011;15917;50.014;8.352;2023-04-24T04:06:04;2.80;;;1.40;;
28760;SDS011;15917;50.014;8.352;2023-04-24T04:08:30;1.52;;;1.00;;
28760;SDS011;15917;50.014;8.352;2023-04-24T04:10:56;1.27;;;0.93;;
28760;SDS011;15917;50.014;8.352;2023-04-24T04:13:22;4.40;;;1.42;;
28760;SDS011;15917;50.014;8.352;2023-04-24T04:15:48;3.83;;;1.10;;
28760;SDS011;15917;50.014;8.352;2023-04-24T04:18:14;2.60;;;1.15;;
28760;SDS011;15917;50.014;8.352;2023-04-24T04:20:40;0.98;;;0.90;;
28760;SDS011;15917;50.014;8.352;2023-04-24T04:23:05;2.33;;;1.48;;
28760;SDS011;15917;50.014;8.352;2023-04-24T04:25:40;2.38;;;1.27;;
28760;SDS011;15917;50.014;8.352;2023-04-24T04:28:07;2.25;;;1.23;;
28760;SDS011;15917;50.014;8.352;2023-04-24T04:30:32;2.65;;;1.27;;
28760;SDS011;15917;50.014;8.352;2023-04-24T04:33:02;1.77;;;1.30;;
28760;SDS011;15917;50.014;8.352;2023-04-24T04:35:28;3.47;;;1.00;;
28760;SDS011;15917;50.014;8.352;2023-04-24T04:37:55;1.95;;;1.40;;
28760;SDS011;15917;50.014;8.352;2023-04-24T04:40:44;2.58;;;1.35;;
28760;SDS011;15917;50.014;8.352;2023-04-24T04:43:11;1.65;;;1.13;;
28760;SDS011;15917;50.014;8.352;2023-04-24T04:45:47;2.20;;;1.30;;
28760;SDS011;15917;50.014;8.352;2023-04-24T04:48:32;2.67;;;1.33;;
28760;SDS011;15917;50.014;8.352;2023-04-24T04:51:00;2.10;;;1.30;;
28760;SDS011;15917;50.014;8.352;2023-04-24T04:53:27;2.25;;;1.17;;
28760;SDS011;15917;50.014;8.352;2023-04-24T04:55:52;2.53;;;1.48;;
28760;SDS011;15917;50.014;8.352;2023-04-24T04:58:21;6.55;;;2.80;;
28760;SDS011;15917;50.014;8.352;2023-04-24T05:00:51;4.18;;;1.35;;
28760;SDS011;15917;50.014;8.352;2023-04-24T05:03:27;4.07;;;1.73;;
28760;SDS011;15917;50.014;8.352;2023-04-24T05:06:01;6.97;;;1.42;;
28760;SDS011;15917;50.014;8.352;2023-04-24T05:08:30;3.95;;;1.88;;
28760;SDS011;15917;50.014;8.352;2023-04-24T05:10:58;3.17;;;1.80;;
28760;SDS011;15917;50.014;8.352;2023-04-24T05:13:26;4.90;;;2.30;;
28760;SDS011;15917;50.014;8.352;2023-04-24T05:15:52;2.63;;;1.55;;
28760;SDS011;15917;50.014;8.352;2023-04-24T05:18:17;7.30;;;2.90;;
28760;SDS011;15917;50.014;8.352;2023-04-24T05:20:43;3.13;;;2.05;;
28760;SDS011;15917;50.014;8.352;2023-04-24T05:23:09;5.28;;;2.25;;
28760;SDS011;15917;50.014;8.352;2023-04-24T05:25:38;2.05;;;1.55;;
28760;SDS011;15917;50.014;8.352;2023-04-24T05:28:08;6.05;;;2.30;;
28760;SDS011;15917;50.014;8.352;2023-04-24T05:30:34;5.28;;;2.22;;
28760;SDS011;15917;50.014;8.352;2023-04-24T05:33:00;2.90;;;1.95;;
28760;SDS011;15917;50.014;8.352;2023-04-24T05:35:25;4.20;;;2.10;;
28760;SDS011;15917;50.014;8.352;2023-04-24T05:37:51;5.47;;;2.25;;
28760;SDS011;15917;50.014;8.352;2023-04-24T05:40:17;3.92;;;2.08;;
28760;SDS011;15917;50.014;8.352;2023-04-24T05:42:43;4.78;;;2.20;;
28760;SDS011;15917;50.014;8.352;2023-04-24T05:45:08;5.53;;;2.50;;
28760;SDS011;15917;50.014;8.352;2023-04-24T05:47:40;4.88;;;2.00;;
28760;SDS011;15917;50.014;8.352;2023-04-24T05:50:06;7.95;;;2.63;;
28760;SDS011;15917;50.014;8.352;2023-04-24T05:52:32;2.53;;;1.85;;
28760;SDS011;15917;50.014;8.352;2023-04-24T05:55:02;3.65;;;1.83;;
28760;SDS011;15917;50.014;8.352;2023-04-24T05:57:32;4.75;;;2.47;;
28760;SDS011;15917;50.014;8.352;2023-04-24T06:00:02;3.97;;;2.13;;
28760;SDS011;15917;50.014;8.352;2023-04-24T06:02:38;2.78;;;2.30;;
28760;SDS011;15917;50.014;8.352;2023-04-24T06:05:06;5.88;;;2.75;;
28760;SDS011;15917;50.014;8.352;2023-04-24T06:07:35;4.13;;;2.30;;
28760;SDS011;15917;50.014;8.352;2023-04-24T06:10:03;5.30;;;2.60;;
28760;SDS011;15917;50.014;8.352;2023-04-24T06:12:36;6.38;;;2.72;;
28760;SDS011;15917;50.014;8.352;2023-04-24T06:15:07;3.60;;;2.28;;
28760;SDS011;15917;50.014;8.352;2023-04-24T06:18:15;5.60;;;2.83;;
28760;SDS011;15917;50.014;8.352;2023-04-24T06:20:51;3.30;;;2.10;;
28760;SDS011;15917;50.014;8.352;2023-04-24T06:23:17;9.85;;;2.90;;
28760;SDS011;15917;50.014;8.352;2023-04-24T06:25:42;3.72;;;2.60;;
28760;SDS011;15917;50.014;8.352;2023-04-24T06:30:36;3.03;;;2.10;;
28760;SDS011;15917;50.014;8.352;2023-04-24T06:33:01;7.70;;;2.70;;
28760;SDS011;15917;50.014;8.352;2023-04-24T06:35:27;3.92;;;2.65;;
28760;SDS011;15917;50.014;8.352;2023-04-24T06:37:53;3.70;;;2.75;;
28760;SDS011;15917;50.014;8.352;2023-04-24T06:40:18;5.47;;;2.70;;
28760;SDS011;15917;50.014;8.352;2023-04-24T06:42:44;4.60;;;2.88;;
28760;SDS011;15917;50.014;8.352;2023-04-24T06:45:10;4.10;;;2.60;;
28760;SDS011;15917;50.014;8.352;2023-04-24T06:47:36;5.20;;;3.15;;
28760;SDS011;15917;50.014;8.352;2023-04-24T06:50:02;5.53;;;2.53;;
28760;SDS011;15917;50.014;8.352;2023-04-24T06:52:28;7.40;;;2.88;;
28760;SDS011;15917;50.014;8.352;2023-04-24T06:55:03;4.50;;;3.30;;
28760;SDS011;15917;50.014;8.352;2023-04-24T06:57:31;5.22;;;3.10;;
28760;SDS011;15917;50.014;8.352;2023-04-24T06:59:57;5.73;;;3.53;;
28760;SDS011;15917;50.014;8.352;2023-04-24T07:02:22;6.03;;;2.85;;
28760;SDS011;15917;50.014;8.352;2023-04-24T07:04:48;9.77;;;3.28;;
28760;SDS011;15917;50.014;8.352;2023-04-24T07:07:14;8.43;;;2.80;;
28760;SDS011;15917;50.014;8.352;2023-04-24T07:09:40;3.60;;;2.58;;
28760;SDS011;15917;50.014;8.352;2023-04-24T07:12:09;4.47;;;2.28;;
28760;SDS011;15917;50.014;8.352;2023-04-24T07:14:35;5.00;;;2.42;;
28760;SDS011;15917;50.014;8.352;2023-04-24T07:17:04;4.57;;;2.95;;
28760;SDS011;15917;50.014;8.352;2023-04-24T07:19:31;10.73;;;2.80;;
28760;SDS011;15917;50.014;8.352;2023-04-24T07:21:58;5.55;;;2.22;;
28760;SDS011;15917;50.014;8.352;2023-04-24T07:24:24;7.60;;;2.42;;
28760;SDS011;15917;50.014;8.352;2023-04-24T07:26:50;2.92;;;2.05;;
28760;SDS011;15917;50.014;8.352;2023-04-24T07:29:17;5.45;;;2.83;;
28760;SDS011;15917;50.014;8.352;2023-04-24T07:31:43;4.60;;;2.63;;
28760;SDS011;15917;50.014;8.352;2023-04-24T07:34:08;6.88;;;3.03;;
28760;SDS011;15917;50.014;8.352;2023-04-24T07:36:34;10.02;;;3.05;;
28760;SDS011;15917;50.014;8.352;2023-04-24T07:39:00;3.53;;;2.35;;
28760;SDS011;15917;50.014;8.352;2023-04-24T07:41:26;4.18;;;2.55;;
28760;SDS011;15917;50.014;8.352;2023-04-24T07:43:53;4.65;;;2.13;;
28760;SDS011;15917;50.014;8.352;2023-04-24T07:46:19;3.95;;;2.50;;
28760;SDS011;15917;50.014;8.352;2023-04-24T07:48:45;4.30;;;2.38;;
28760;SDS011;15917;50.014;8.352;2023-04-24T07:51:13;3.95;;;2.55;;
28760;SDS011;15917;50.014;8.352;2023-04-24T07:53:39;3.35;;;2.33;;
28760;SDS011;15917;50.014;8.352;2023-04-24T07:56:05;5.55;;;1.85;;
28760;SDS011;15917;50.014;8.352;2023-04-24T07:58:30;4.75;;;2.30;;
28760;SDS011;15917;50.014;8.352;2023-04-24T08:00:56;5.22;;;2.33;;
28760;SDS011;15917;50.014;8.352;2023-04-24T08:03:22;5.53;;;2.30;;
28760;SDS011;15917;50.014;8.352;2023-04-24T08:05:47;4.28;;;1.80;;
28760;SDS011;15917;50.014;8.352;2023-04-24T08:08:13;4.85;;;2.08;;
28760;SDS011;15917;50.014;8.352;2023-04-24T08:10:39;8.25;;;2.33;;
28760;SDS011;15917;50.014;8.352;2023-04-24T08:13:05;3.65;;;2.13;;
28760;SDS011;15917;50.014;8.352;2023-04-24T08:15:30;4.20;;;2.58;;
28760;SDS011;15917;50.014;8.352;2023-04-24T08:17:56;3.97;;;2.72;;
28760;SDS011;15917;50.014;8.352;2023-04-24T08:20:22;6.47;;;2.38;;
28760;SDS011;15917;50.014;8.352;2023-04-24T08:22:48;5.20;;;2.20;;
28760;SDS011;15917;50.014;8.352;2023-04-24T08:25:14;3.08;;;2.25;;
28760;SDS011;15917;50.014;8.352;2023-04-24T08:27:39;6.22;;;2.00;;
28760;SDS011;15917;50.014;8.352;2023-04-24T08:30:05;2.60;;;2.05;;
28760;SDS011;15917;50.014;8.352;2023-04-24T08:32:31;5.10;;;2.65;;
28760;SDS011;15917;50.014;8.352;2023-04-24T08:34:57;3.03;;;2.15;;
28760;SDS011;15917;50.014;8.352;2023-04-24T08:37:24;2.70;;;1.88;;
28760;SDS011;15917;50.014;8.352;2023-04-24T08:39:51;4.17;;;2.00;;
28760;SDS011;15917;50.014;8.352;2023-04-24T08:44:54;5.07;;;1.85;;
28760;SDS011;15917;50.014;8.352;2023-04-24T08:47:20;3.25;;;1.92;;
28760;SDS011;15917;50.014;8.352;2023-04-24T08:49:47;2.22;;;1.88;;
28760;SDS011;15917;50.014;8.352;2023-04-24T08:52:15;3.80;;;2.20;;
28760;SDS011;15917;50.014;8.352;2023-04-24T08:54:41;4.45;;;1.88;;
28760;SDS011;15917;50.014;8.352;2023-04-24T08:57:08;3.67;;;2.00;;
28760;SDS011;15917;50.014;8.352;2023-04-24T08:59:36;2.78;;;1.77;;
28760;SDS011;15917;50.014;8.352;2023-04-24T09:02:03;3.47;;;2.20;;
28760;SDS011;15917;50.014;8.352;2023-04-24T09:04:29;4.93;;;2.15;;
28760;SDS011;15917;50.014;8.352;2023-04-24T09:06:56;3.08;;;2.08;;
28760;SDS011;15917;50.014;8.352;2023-04-24T09:09:23;3.95;;;1.80;;
28760;SDS011;15917;50.014;8.352;2023-04-24T09:11:50;3.92;;;1.50;;
28760;SDS011;15917;50.014;8.352;2023-04-24T09:14:18;4.70;;;1.88;;
28760;SDS011;15917;50.014;8.352;2023-04-24T09:16:45;5.45;;;2.28;;
28760;SDS011;15917;50.014;8.352;2023-04-24T09:19:11;3.22;;;2.08;;
28760;SDS011;15917;50.014;8.352;2023-04-24T09:21:37;9.07;;;2.15;;
28760;SDS011;15917;50.014;8.352;2023-04-24T09:24:04;2.38;;;1.83;;
28760;SDS011;15917;50.014;8.352;2023-04-24T09:26:34;3.67;;;1.88;;
28760;SDS011;15917;50.014;8.352;2023-04-24T09:29:01;3.92;;;2.00;;
28760;SDS011;15917;50.014;8.352;2023-04-24T09:31:28;2.60;;;1.58;;
28760;SDS011;15917;50.014;8.352;2023-04-24T09:33:58;1.98;;;1.52;;
28760;SDS011;15917;50.014;8.352;2023-04-24T09:36:37;2.95;;;1.55;;
28760;SDS011;15917;50.014;8.352;2023-04-24T09:39:06;2.67;;;1.60;;
28760;SDS011;15917;50.014;8.352;2023-04-24T09:41:33;2.50;;;1.40;;
28760;SDS011;15917;50.014;8.352;2023-04-24T09:44:12;3.20;;;1.60;;
28760;SDS011;15917;50.014;8.352;2023-04-24T09:46:43;4.82;;;1.50;;
28760;SDS011;15917;50.014;8.352;2023-04-24T09:49:12;2.63;;;1.63;;
28760;SDS011;15917;50.014;8.352;2023-04-24T09:51:40;1.27;;;1.13;;
28760;SDS011;15917;50.014;8.352;2023-04-24T09:54:18;4.93;;;1.40;;
28760;SDS011;15917;50.014;8.352;2023-04-24T09:56:46;1.88;;;1.30;;
28760;SDS011;15917;50.014;8.352;2023-04-24T09:59:19;2.00;;;1.13;;
28760;SDS011;15917;50.014;8.352;2023-04-24T10:01:45;2.03;;;1.48;;
28760;SDS011;15917;50.014;8.352;2023-04-24T10:04:22;3.15;;;1.50;;
28760;SDS011;15917;50.014;8.352;2023-04-24T10:06:49;2.15;;;1.67;;
28760;SDS011;15917;50.014;8.352;2023-04-24T10:09:20;3.80;;;1.55;;
28760;SDS011;15917;50.014;8.352;2023-04-24T10:11:48;2.40;;;1.65;;
28760;SDS011;15917;50.014;8.352;2023-04-24T10:14:18;3.97;;;1.80;;
28760;SDS011;15917;50.014;8.352;2023-04-24T10:16:48;2.03;;;1.70;;
28760;SDS011;15917;50.014;8.352;2023-04-24T10:19:15;8.45;;;1.75;;
28760;SDS011;15917;50.014;8.352;2023-04-24T10:21:43;2.90;;;1.60;;
28760;SDS011;15917;50.014;8.352;2023-04-24T10:24:13;5.35;;;1.60;;
28760;SDS011;15917;50.014;8.352;2023-04-24T10:26:40;2.58;;;1.20;;
28760;SDS011;15917;50.014;8.352;2023-04-24T10:29:07;4.10;;;1.60;;
28760;SDS011;15917;50.014;8.352;2023-04-24T10:31:35;3.60;;;1.55;;
28760;SDS011;15917;50.014;8.352;2023-04-24T10:34:02;7.68;;;1.88;;
28760;SDS011;15917;50.014;8.352;2023-04-24T10:38:57;3.03;;;1.50;;
28760;SDS011;15917;50.014;8.352;2023-04-24T10:41:26;2.20;;;1.55;;
28760;SDS011;15917;50.014;8.352;2023-04-24T10:44:05;2.22;;;1.60;;
28760;SDS011;15917;50.014;8.352;2023-04-24T10:46:35;1.83;;;1.70;;
28760;SDS011;15917;50.014;8.352;2023-04-24T10:49:04;4.93;;;1.88;;
28760;SDS011;15917;50.014;8.352;2023-04-24T10:51:49;1.98;;;1.45;;
28760;SDS011;15917;50.014;8.352;2023-04-24T10:59:44;2.75;;;1.20;;
28760;SDS011;15917;50.014;8.352;2023-04-24T11:02:10;2.72;;;1.10;;
28760;SDS011;15917;50.014;8.352;2023-04-24T11:04:39;3.03;;;1.33;;
28760;SDS011;15917;50.014;8.352;2023-04-24T11:07:05;1.75;;;0.90;;
28760;SDS011;15917;50.014;8.352;2023-04-24T11:09:31;2.45;;;1.10;;
28760;SDS011;15917;50.014;8.352;2023-04-24T11:12:07;1.58;;;0.80;;
28760;SDS011;15917;50.014;8.352;2023-04-24T11:17:33;5.07;;;0.75;;
28760;SDS011;15917;50.014;8.352;2023-04-24T11:20:06;1.75;;;1.50;;
28760;SDS011;15917;50.014;8.352;2023-04-24T11:22:34;1.98;;;1.00;;
28760;SDS011;15917;50.014;8.352;2023-04-24T11:25:01;3.53;;;1.00;;
28760;SDS011;15917;50.014;8.352;2023-04-24T11:27:30;4.57;;;1.00;;
28760;SDS011;15917;50.014;8.352;2023-04-24T11:34:53;3.30;;;0.70;;
28760;SDS011;15917;50.014;8.352;2023-04-24T11:37:30;0.63;;;0.60;;
28760;SDS011;15917;50.014;8.352;2023-04-24T11:40:00;3.38;;;0.70;;
28760;SDS011;15917;50.014;8.352;2023-04-24T11:42:25;0.55;;;0.55;;
28760;SDS011;15917;50.014;8.352;2023-04-24T11:44:52;4.05;;;0.75;;
28760;SDS011;15917;50.014;8.352;2023-04-24T11:47:31;0.98;;;0.77;;
28760;SDS011;15917;50.014;8.352;2023-04-24T11:49:58;1.35;;;0.70;;
28760;SDS011;15917;50.014;8.352;2023-04-24T11:52:25;1.45;;;1.08;;
28760;SDS011;15917;50.014;8.352;2023-04-24T11:54:51;1.35;;;1.10;;
28760;SDS011;15917;50.014;8.352;2023-04-24T11:57:20;4.28;;;1.70;;
28760;SDS011;15917;50.014;8.352;2023-04-24T11:59:48;4.72;;;1.30;;
28760;SDS011;15917;50.014;8.352;2023-04-24T12:02:20;2.50;;;1.42;;
28760;SDS011;15917;50.014;8.352;2023-04-24T12:04:50;3.50;;;1.95;;
28760;SDS011;15917;50.014;8.352;2023-04-24T12:07:16;5.30;;;1.80;;
28760;SDS011;15917;50.014;8.352;2023-04-24T12:09:56;2.10;;;1.20;;
28760;SDS011;15917;50.014;8.352;2023-04-24T12:12:24;1.77;;;1.20;;
28760;SDS011;15917;50.014;8.352;2023-04-24T12:14:54;4.38;;;1.38;;
28760;SDS011;15917;50.014;8.352;2023-04-24T12:17:27;2.53;;;1.70;;
28760;SDS011;15917;50.014;8.352;2023-04-24T12:19:59;2.70;;;1.85;;
28760;SDS011;15917;50.014;8.352;2023-04-24T12:22:27;3.10;;;2.03;;
28760;SDS011;15917;50.014;8.352;2023-04-24T12:24:57;4.55;;;2.25;;
28760;SDS011;15917;50.014;8.352;2023-04-24T12:27:33;9.23;;;2.08;;
28760;SDS011;15917;50.014;8.352;2023-04-24T12:30:00;4.93;;;2.53;;
28760;SDS011;15917;50.014;8.352;2023-04-24T12:32:26;3.50;;;2.20;;
28760;SDS011;15917;50.014;8.352;2023-04-24T12:34:53;5.88;;;2.45;;
28760;SDS011;15917;50.014;8.352;2023-04-24T12:37:19;7.47;;;2.40;;
28760;SDS011;15917;50.014;8.352;2023-04-24T12:39:58;4.75;;;2.33;;
28760;SDS011;15917;50.014;8.352;2023-04-24T12:42:31;4.05;;;2.83;;
28760;SDS011;15917;50.014;8.352;2023-04-24T12:45:01;4.95;;;2.40;;
28760;SDS011;15917;50.014;8.352;2023-04-24T12:47:30;5.82;;;2.80;;
28760;SDS011;15917;50.014;8.352;2023-04-24T12:49:56;4.65;;;2.40;;
28760;SDS011;15917;50.014;8.352;2023-04-24T12:52:22;4.35;;;2.60;;
28760;SDS011;15917;50.014;8.352;2023-04-24T12:54:49;6.22;;;2.15;;
28760;SDS011;15917;50.014;8.352;2023-04-24T12:57:16;7.67;;;2.30;;
28760;SDS011;15917;50.014;8.352;2023-04-24T12:59:42;5.18;;;2.13;;
28760;SDS011;15917;50.014;8.352;2023-04-24T13:02:09;7.78;;;2.53;;
28760;SDS011;15917;50.014;8.352;2023-04-24T13:04:35;2.45;;;1.95;;
28760;SDS011;15917;50.014;8.352;2023-04-24T13:07:04;5.70;;;2.38;;
28760;SDS011;15917;50.014;8.352;2023-04-24T13:09:31;4.68;;;2.25;;
28760;SDS011;15917;50.014;8.352;2023-04-24T13:11:56;6.30;;;2.42;;
28760;SDS011;15917;50.014;8.352;2023-04-24T13:14:22;5.05;;;2.50;;
28760;SDS011;15917;50.014;8.352;2023-04-24T13:16:48;3.47;;;2.20;;
28760;SDS011;15917;50.014;8.352;2023-04-24T13:19:14;3.28;;;2.25;;
28760;SDS011;15917;50.014;8.352;2023-04-24T13:21:40;6.03;;;2.38;;
28760;SDS011;15917;50.014;8.352;2023-04-24T13:24:06;4.78;;;1.92;;
28760;SDS011;15917;50.014;8.352;2023-04-24T13:26:33;6.68;;;2.17;;
28760;SDS011;15917;50.014;8.352;2023-04-24T13:28:58;6.72;;;2.47;;
28760;SDS011;15917;50.014;8.352;2023-04-24T13:31:24;5.88;;;2.40;;
28760;SDS011;15917;50.014;8.352;2023-04-24T13:33:50;8.07;;;2.55;;
28760;SDS011;15917;50.014;8.352;2023-04-24T13:36:15;4.70;;;2.40;;
28760;SDS011;15917;50.014;8.352;2023-04-24T13:38:42;5.78;;;2.70;;
28760;SDS011;15917;50.014;8.352;2023-04-24T13:41:09;6.18;;;2.53;;
28760;SDS011;15917;50.014;8.352;2023-04-24T13:43:35;6.65;;;2.67;;
28760;SDS011;15917;50.014;8.352;2023-04-24T13:46:01;5.45;;;2.50;;
28760;SDS011;15917;50.014;8.352;2023-04-24T13:48:28;5.93;;;2.92;;
28760;SDS011;15917;50.014;8.352;2023-04-24T13:50:54;5.80;;;2.40;;
28760;SDS011;15917;50.014;8.352;2023-04-24T13:53:20;5.25;;;2.47;;
28760;SDS011;15917;50.014;8.352;2023-04-24T13:55:46;9.68;;;2.75;;
28760;SDS011;15917;50.014;8.352;2023-04-24T13:58:11;7.70;;;2.33;;
28760;SDS011;15917;50.014;8.352;2023-04-24T14:00:37;5.65;;;2.10;;
28760;SDS011;15917;50.014;8.352;2023-04-24T14:03:03;6.28;;;2.90;;
28760;SDS011;15917;50.014;8.352;2023-04-24T14:05:28;7.15;;;2.90;;
28760;SDS011;15917;50.014;8.352;2023-04-24T14:07:54;3.85;;;2.50;;
28760;SDS011;15917;50.014;8.352;2023-04-24T14:10:20;6.93;;;2.42;;
28760;SDS011;15917;50.014;8.352;2023-04-24T14:12:45;10.57;;;2.58;;
28760;SDS011;15917;50.014;8.352;2023-04-24T14:15:11;6.95;;;2.20;;
28760;SDS011;15917;50.014;8.352;2023-04-24T14:17:38;6.70;;;2.35;;
28760;SDS011;15917;50.014;8.352;2023-04-24T14:20:04;6.80;;;2.45;;
28760;SDS011;15917;50.014;8.352;2023-04-24T14:22:31;13.63;;;2.47;;
28760;SDS011;15917;50.014;8.352;2023-04-24T14:24:57;4.43;;;2.58;;
28760;SDS011;15917;50.014;8.352;2023-04-24T14:27:24;5.85;;;2.53;;
28760;SDS011;15917;50.014;8.352;2023-04-24T14:29:50;7.05;;;3.00;;
28760;SDS011;15917;50.014;8.352;2023-04-24T14:32:16;5.68;;;2.40;;
28760;SDS011;15917;50.014;8.352;2023-04-24T14:34:42;8.38;;;3.33;;
28760;SDS011;15917;50.014;8.352;2023-04-24T14:37:07;4.55;;;2.55;;
28760;SDS011;15917;50.014;8.352;2023-04-24T14:39:33;5.75;;;2.33;;
28760;SDS011;15917;50.014;8.352;2023-04-24T14:41:59;4.53;;;2.22;;
28760;SDS011;15917;50.014;8.352;2023-04-24T14:44:26;6.97;;;2.30;;
28760;SDS011;15917;50.014;8.352;2023-04-24T14:46:51;9.65;;;2.70;;
28760;SDS011;15917;50.014;8.352;2023-04-24T14:49:18;2.80;;;1.73;;
28760;SDS011;15917;50.014;8.352;2023-04-24T14:51:43;8.02;;;2.78;;
28760;SDS011;15917;50.014;8.352;2023-04-24T14:54:09;6.95;;;2.90;;
28760;SDS011;15917;50.014;8.352;2023-04-24T14:56:34;8.18;;;2.53;;
28760;SDS011;15917;50.014;8.352;2023-04-24T14:59:00;6.22;;;2.38;;
28760;SDS011;15917;50.014;8.352;2023-04-24T15:01:27;5.05;;;2.20;;
28760;SDS011;15917;50.014;8.352;2023-04-24T15:03:52;4.63;;;2.40;;
28760;SDS011;15917;50.014;8.352;2023-04-24T15:06:18;6.40;;;2.15;;
28760;SDS011;15917;50.014;8.352;2023-04-24T15:08:43;6.57;;;2.22;;
28760;SDS011;15917;50.014;8.352;2023-04-24T15:11:10;7.00;;;2.80;;